createdAt,value
2022-08-04T00:00:43.135Z,23.48
2022-08-04T00:03:14.842Z,23.45
2022-08-04T00:05:46.680Z,23.47
2022-08-04T00:08:18.212Z,23.49
2022-08-04T00:10:50.118Z,23.52
2022-08-04T00:13:21.636Z,23.52
2022-08-04T00:15:53.564Z,23.53
2022-08-04T00:18:25.102Z,23.51
2022-08-04T00:20:57.032Z,23.51
2022-08-04T00:23:28.575Z,23.50
2022-08-04T00:26:20.404Z,23.44
2022-08-04T00:28:52.368Z,23.40
2022-08-04T00:31:54.382Z,23.39
2022-08-04T00:34:15.716Z,23.34
2022-08-04T00:36:47.281Z,23.29
2022-08-04T00:39:20.097Z,23.30
2022-08-04T00:41:56.536Z,23.35
2022-08-04T00:44:28.957Z,23.32
2022-08-04T00:47:00.548Z,23.24
2022-08-04T00:49:32.397Z,23.16
2022-08-04T00:52:30.732Z,23.14
2022-08-04T00:54:55.747Z,23.03
2022-08-04T00:57:29.877Z,23.03
2022-08-04T01:00:08.155Z,23.07
2022-08-04T01:02:39.708Z,23.08
2022-08-04T01:05:11.579Z,23.04
2022-08-04T01:07:43.115Z,23.02
2022-08-04T01:10:17.521Z,23.03
2022-08-04T01:12:49.364Z,23.04
2022-08-04T01:15:21.226Z,23.07
2022-08-04T01:17:52.737Z,23.01
2022-08-04T01:20:24.569Z,22.98
2022-08-04T01:22:56.092Z,22.96
2022-08-04T01:25:27.922Z,22.97
2022-08-04T01:28:02.721Z,22.93
2022-08-04T01:30:34.612Z,22.86
2022-08-04T01:33:06.126Z,22.85
2022-08-04T01:35:46.903Z,22.85
2022-08-04T01:38:21.783Z,22.85
2022-08-04T01:40:54.460Z,22.85
2022-08-04T01:43:25.979Z,22.83
2022-08-04T01:45:57.818Z,22.77
2022-08-04T01:48:29.375Z,22.68
2022-08-04T01:51:01.242Z,22.68
2022-08-04T01:53:32.826Z,22.69
2022-08-04T01:56:04.738Z,22.62
2022-08-04T01:58:36.297Z,22.53
2022-08-04T02:01:09.046Z,22.45
2022-08-04T02:04:18.921Z,22.41
2022-08-04T02:06:33.558Z,22.39
2022-08-04T02:09:05.087Z,22.35
2022-08-04T02:11:36.930Z,22.35
2022-08-04T02:14:08.469Z,22.33
2022-08-04T02:16:40.348Z,22.19
2022-08-04T02:19:14.797Z,22.20
2022-08-04T02:21:46.867Z,22.19
2022-08-04T02:24:18.434Z,22.18
2022-08-04T02:26:50.470Z,22.17
2022-08-04T02:29:22.017Z,22.17
2022-08-04T02:31:53.848Z,22.14
2022-08-04T02:34:25.380Z,22.09
2022-08-04T02:36:57.457Z,22.05
2022-08-04T02:39:29.383Z,22.03
2022-08-04T02:42:01.061Z,21.92
2022-08-04T02:44:32.914Z,21.91
2022-08-04T02:47:04.453Z,21.76
2022-08-04T02:49:36.006Z,21.67
2022-08-04T02:52:10.191Z,21.58
2022-08-04T02:54:42.638Z,21.59
2022-08-04T02:57:14.334Z,21.60
2022-08-04T02:59:46.413Z,21.63
2022-08-04T03:02:17.924Z,21.59
2022-08-04T03:04:49.916Z,21.57
2022-08-04T03:07:21.652Z,21.59
2022-08-04T03:09:53.438Z,21.61
2022-08-04T03:12:24.946Z,21.57
2022-08-04T03:14:56.836Z,21.54
2022-08-04T03:17:28.331Z,21.50
2022-08-04T03:20:00.170Z,21.47
2022-08-04T03:22:31.670Z,21.47
2022-08-04T03:25:03.185Z,21.35
2022-08-04T03:27:34.722Z,21.31
2022-08-04T03:30:06.618Z,21.34
2022-08-04T03:32:38.123Z,21.30
2022-08-04T03:35:10.107Z,21.26
2022-08-04T03:37:45.111Z,21.24
2022-08-04T03:40:16.945Z,21.25
2022-08-04T03:42:48.463Z,21.24
2022-08-04T03:45:23.965Z,21.18
2022-08-04T03:47:55.899Z,21.26
2022-08-04T03:50:28.503Z,21.22
2022-08-04T03:53:09.144Z,21.28
2022-08-04T03:55:41.074Z,21.33
2022-08-04T03:58:12.583Z,21.37
2022-08-04T04:00:44.413Z,21.43
2022-08-04T04:03:28.685Z,21.47
2022-08-04T04:06:02.556Z,21.47
2022-08-04T04:08:35.424Z,21.10
2022-08-04T04:11:08.658Z,21.51
2022-08-04T04:13:40.168Z,21.52
2022-08-04T04:16:12.925Z,21.53
2022-08-04T04:18:45.619Z,21.60
2022-08-04T04:21:17.531Z,21.63
2022-08-04T04:23:49.016Z,21.66
2022-08-04T04:26:20.833Z,21.72
2022-08-04T04:28:52.478Z,21.75
2022-08-04T04:31:24.468Z,21.78
2022-08-04T04:33:56.252Z,21.82
2022-08-04T04:36:29.130Z,21.90
2022-08-04T04:39:00.662Z,22.00
2022-08-04T04:41:32.487Z,22.03
2022-08-04T04:44:03.991Z,22.09
2022-08-04T04:46:35.800Z,22.15
2022-08-04T04:49:07.299Z,22.24
2022-08-04T04:51:39.185Z,22.38
2022-08-04T04:54:10.700Z,22.49
2022-08-04T04:56:42.550Z,22.56
2022-08-04T04:59:15.515Z,22.62
2022-08-04T05:01:47.816Z,22.73
2022-08-04T05:04:19.301Z,22.84
2022-08-04T05:06:54.485Z,22.93
2022-08-04T05:09:26.355Z,23.02
2022-08-04T05:11:58.296Z,23.13
2022-08-04T05:14:34.480Z,23.25
2022-08-04T05:17:10.881Z,23.31
2022-08-04T05:19:42.723Z,23.42
2022-08-04T05:22:14.898Z,23.50
2022-08-04T05:24:46.788Z,23.66
2022-08-04T05:27:18.304Z,23.72
2022-08-04T05:29:50.226Z,23.83
2022-08-04T05:32:21.732Z,23.96
2022-08-04T05:34:53.626Z,24.07
2022-08-04T05:37:25.139Z,24.25
2022-08-04T05:40:03.555Z,24.39
2022-08-04T05:42:35.049Z,24.55
2022-08-04T05:45:06.869Z,24.75
2022-08-04T05:47:38.464Z,24.84
2022-08-04T05:50:10.042Z,24.93
2022-08-04T05:52:41.759Z,25.09
2022-08-04T05:55:13.250Z,25.35
2022-08-04T05:58:04.741Z,25.51
2022-08-04T06:00:41.112Z,25.66
2022-08-04T06:03:13.215Z,25.82
2022-08-04T06:05:45.175Z,25.99
2022-08-04T06:08:16.732Z,26.18
2022-08-04T06:10:48.589Z,26.23
2022-08-04T06:13:48.996Z,26.24
2022-08-04T06:16:17.975Z,26.55
2022-08-04T06:19:59.745Z,26.73
2022-08-04T06:21:53.535Z,26.79
2022-08-04T06:24:25.050Z,26.69
2022-08-04T06:26:56.902Z,26.68
2022-08-04T06:29:35.205Z,26.80
2022-08-04T06:32:33.750Z,26.92
2022-08-04T06:35:07.457Z,27.07
2022-08-04T06:37:42.629Z,27.27
2022-08-04T06:40:31.435Z,27.30
2022-08-04T06:43:04.271Z,27.42
2022-08-04T06:45:36.139Z,27.53
2022-08-04T06:48:07.644Z,27.69
2022-08-04T06:51:24.503Z,27.92
2022-08-04T06:53:31.141Z,28.10
2022-08-04T06:56:03.004Z,27.97
2022-08-04T06:58:34.516Z,28.18
2022-08-04T07:01:06.447Z,27.91
2022-08-04T07:03:37.945Z,27.93
2022-08-04T07:06:14.271Z,28.15
2022-08-04T07:08:46.502Z,28.23
2022-08-04T07:11:18.290Z,28.26
2022-08-04T07:13:50.212Z,28.54
2022-08-04T07:16:30.741Z,28.77
2022-08-04T07:19:09.980Z,29.02
2022-08-04T07:22:16.040Z,28.88
2022-08-04T07:24:34.856Z,28.72
2022-08-04T07:27:07.016Z,28.97
2022-08-04T07:29:38.600Z,29.32
2022-08-04T07:32:11.367Z,29.62
2022-08-04T07:34:42.901Z,29.73
2022-08-04T07:37:21.947Z,29.33
2022-08-04T07:40:11.041Z,29.83
2022-08-04T07:42:42.568Z,30.13
2022-08-04T07:45:14.432Z,29.97
2022-08-04T07:48:05.088Z,30.40
2022-08-04T07:50:38.821Z,30.66
2022-08-04T07:53:54.978Z,30.81
2022-08-04T07:56:02.967Z,31.06
2022-08-04T07:58:34.473Z,31.10
2022-08-04T08:01:06.348Z,31.22
2022-08-04T08:03:37.887Z,31.53
2022-08-04T08:06:31.171Z,31.67
2022-08-04T08:09:02.254Z,31.63
2022-08-04T08:12:36.713Z,31.78
2022-08-04T08:14:37.963Z,31.93
2022-08-04T08:17:09.470Z,31.99
2022-08-04T08:19:41.504Z,32.26
2022-08-04T08:22:13.171Z,32.40
2022-08-04T08:24:44.959Z,32.31
2022-08-04T08:27:16.469Z,32.48
2022-08-04T08:29:48.413Z,32.78
2022-08-04T08:32:19.917Z,32.85
2022-08-04T08:34:51.962Z,32.83
2022-08-04T08:37:23.853Z,33.00
2022-08-04T08:39:55.928Z,33.21
2022-08-04T08:42:27.466Z,33.38
2022-08-04T08:44:59.452Z,33.38
2022-08-04T08:48:06.291Z,33.52
2022-08-04T08:50:22.730Z,33.62
2022-08-04T08:52:57.471Z,33.69
2022-08-04T08:55:35.484Z,33.60
2022-08-04T08:58:06.991Z,33.84
2022-08-04T09:00:40.818Z,33.60
2022-08-04T09:03:12.359Z,34.21
2022-08-04T09:05:44.205Z,34.67
2022-08-04T09:08:15.720Z,34.77
2022-08-04T09:10:47.557Z,34.47
2022-08-04T09:13:19.061Z,34.46
2022-08-04T09:15:54.162Z,35.16
2022-08-04T09:18:26.059Z,35.43
2022-08-04T09:20:58.044Z,35.74
2022-08-04T09:23:29.554Z,34.96
2022-08-04T09:26:01.631Z,35.40
2022-08-04T09:28:52.857Z,35.56
2022-08-04T09:31:24.630Z,35.79
2022-08-04T09:33:56.161Z,35.98
2022-08-04T09:36:28.107Z,35.50
2022-08-04T09:38:59.711Z,35.66
2022-08-04T09:41:48.469Z,35.81
2022-08-04T09:44:49.761Z,36.32
2022-08-04T09:47:12.514Z,36.59
2022-08-04T09:49:44.668Z,36.44
2022-08-04T09:52:16.422Z,36.30
2022-08-04T09:54:48.406Z,36.23
2022-08-04T09:57:19.919Z,35.42
2022-08-04T09:59:51.723Z,36.13
2022-08-04T10:02:23.509Z,36.73
2022-08-04T10:04:55.710Z,37.03
2022-08-04T10:07:27.203Z,36.47
2022-08-04T10:10:00.041Z,37.06
2022-08-04T10:12:31.818Z,37.06
2022-08-04T10:15:03.898Z,37.23
2022-08-04T10:17:35.793Z,36.78
2022-08-04T10:20:07.651Z,37.86
2022-08-04T10:22:50.026Z,37.76
2022-08-04T10:26:03.356Z,37.76
2022-08-04T10:28:22.724Z,38.07
2022-08-04T10:30:54.512Z,37.75
2022-08-04T10:33:26.017Z,36.96
2022-08-04T10:35:57.885Z,36.59
2022-08-04T10:38:29.387Z,37.12
2022-08-04T10:41:01.172Z,37.70
2022-08-04T10:43:32.664Z,37.56
2022-08-04T10:46:04.194Z,37.37
2022-08-04T10:48:35.683Z,37.67
2022-08-04T10:51:07.632Z,37.97
2022-08-04T10:53:39.145Z,38.04
2022-08-04T10:56:10.966Z,38.29
2022-08-04T10:58:48.082Z,38.03
2022-08-04T11:02:00.894Z,36.30
2022-08-04T11:04:12.539Z,37.20
2022-08-04T11:06:44.514Z,37.85
2022-08-04T11:09:16.045Z,38.21
2022-08-04T11:12:00.673Z,37.95
2022-08-04T11:14:33.448Z,38.16
2022-08-04T11:17:05.295Z,38.34
2022-08-04T11:19:45.376Z,38.94
2022-08-04T11:22:19.511Z,38.56
2022-08-04T11:24:51.024Z,38.65
2022-08-04T11:27:23.223Z,38.50
2022-08-04T11:29:54.879Z,37.50
2022-08-04T11:32:26.696Z,37.39
2022-08-04T11:34:58.192Z,37.13
2022-08-04T11:37:30.283Z,37.82
2022-08-04T11:40:02.197Z,37.50
2022-08-04T11:42:33.712Z,37.75
2022-08-04T11:45:05.797Z,37.27
2022-08-04T11:47:38.821Z,37.64
2022-08-04T11:50:10.772Z,37.52
2022-08-04T11:52:42.350Z,37.90
2022-08-04T11:55:14.185Z,37.97
2022-08-04T11:57:45.731Z,38.52
2022-08-04T12:00:26.175Z,37.37
2022-08-04T12:02:57.713Z,37.36
2022-08-04T12:05:36.548Z,38.05
2022-08-04T12:08:09.123Z,37.91
2022-08-04T12:10:42.666Z,38.56
2022-08-04T12:13:14.547Z,39.01
2022-08-04T12:15:46.365Z,39.14
2022-08-04T12:18:17.920Z,39.50
2022-08-04T12:20:50.430Z,38.93
2022-08-04T12:23:23.084Z,37.92
2022-08-04T12:25:55.282Z,38.66
2022-08-04T12:28:28.268Z,38.56
2022-08-04T12:31:06.220Z,39.11
2022-08-04T12:34:04.840Z,37.41
2022-08-04T12:36:33.324Z,37.90
2022-08-04T12:39:04.875Z,38.44
2022-08-04T12:41:36.835Z,38.19
2022-08-04T12:44:36.069Z,37.71
2022-08-04T12:47:27.039Z,37.96
2022-08-04T12:49:59.991Z,38.19
2022-08-04T12:53:00.417Z,38.33
2022-08-04T12:55:24.994Z,38.88
2022-08-04T12:57:56.581Z,38.51
2022-08-04T13:00:31.152Z,39.13
2022-08-04T13:03:06.299Z,39.22
2022-08-04T13:05:42.257Z,38.69
2022-08-04T13:08:13.851Z,38.07
2022-08-04T13:10:45.720Z,37.86
2022-08-04T13:13:17.282Z,38.24
2022-08-04T13:15:56.412Z,37.52
2022-08-04T13:18:30.292Z,37.63
2022-08-04T13:21:08.212Z,37.81
2022-08-04T13:24:10.293Z,37.86
2022-08-04T13:26:54.656Z,38.07
2022-08-04T13:29:59.371Z,38.68
2022-08-04T13:32:18.983Z,39.12
2022-08-04T13:34:52.402Z,39.42
2022-08-04T13:37:25.349Z,38.56
2022-08-04T13:39:57.712Z,38.56
2022-08-04T13:42:29.272Z,37.80
2022-08-04T13:45:01.115Z,38.00
2022-08-04T13:47:33.384Z,38.39
2022-08-04T13:50:10.814Z,39.03
2022-08-04T13:52:43.262Z,38.43
2022-08-04T13:55:15.108Z,38.67
2022-08-04T13:57:46.632Z,39.19
2022-08-04T14:00:29.304Z,38.98
2022-08-04T14:03:02.474Z,39.14
2022-08-04T14:05:59.838Z,38.16
2022-08-04T14:08:25.836Z,38.54
2022-08-04T14:10:58.075Z,38.50
2022-08-04T14:13:29.598Z,38.90
2022-08-04T14:16:13.518Z,38.92
2022-08-04T14:18:45.021Z,39.25
2022-08-04T14:21:16.875Z,39.41
2022-08-04T14:23:49.077Z,39.98
2022-08-04T14:26:20.984Z,40.89
2022-08-04T14:29:28.517Z,39.84
2022-08-04T14:31:57.700Z,39.19
2022-08-04T14:34:31.014Z,38.60
2022-08-04T14:37:16.862Z,39.56
2022-08-04T14:40:17.888Z,39.36
2022-08-04T14:42:41.613Z,39.65
2022-08-04T14:45:13.713Z,39.28
2022-08-04T14:47:52.617Z,39.01
2022-08-04T14:50:25.122Z,38.65
2022-08-04T14:52:56.616Z,39.27
2022-08-04T14:55:28.229Z,39.94
2022-08-04T14:58:36.459Z,40.14
2022-08-04T15:00:51.789Z,39.14
2022-08-04T15:03:24.177Z,39.99
2022-08-04T15:06:02.757Z,39.36
2022-08-04T15:08:37.206Z,40.39
2022-08-04T15:11:09.036Z,39.94
2022-08-04T15:13:40.536Z,40.35
2022-08-04T15:16:12.050Z,40.46
2022-08-04T15:18:43.619Z,40.80
2022-08-04T15:21:22.607Z,40.03
2022-08-04T15:23:54.489Z,39.60
2022-08-04T15:26:25.996Z,40.22
2022-08-04T15:28:57.831Z,39.76
2022-08-04T15:32:07.329Z,39.49
2022-08-04T15:34:21.355Z,39.67
2022-08-04T15:36:57.033Z,39.07
2022-08-04T15:39:29.417Z,38.66
2022-08-04T15:42:01.900Z,39.74
2022-08-04T15:44:33.809Z,39.57
2022-08-04T15:47:05.400Z,39.58
2022-08-04T15:49:39.802Z,40.16
2022-08-04T15:52:12.419Z,39.70
2022-08-04T15:54:52.634Z,39.88
2022-08-04T15:57:24.477Z,38.68
2022-08-04T16:00:00.721Z,38.28
2022-08-04T16:02:32.295Z,38.14
2022-08-04T16:05:04.275Z,38.24
2022-08-04T16:07:53.817Z,38.45
2022-08-04T16:10:25.592Z,38.71
2022-08-04T16:12:57.391Z,39.00
2022-08-04T16:15:29.525Z,38.10
2022-08-04T16:18:01.021Z,37.83
2022-08-04T16:20:32.872Z,37.58
2022-08-04T16:23:04.417Z,37.33
2022-08-04T16:25:37.673Z,36.77
2022-08-04T16:28:17.992Z,36.55
2022-08-04T16:30:49.892Z,36.50
2022-08-04T16:33:22.830Z,36.58
2022-08-04T16:35:54.895Z,36.27
2022-08-04T16:38:42.105Z,36.48
2022-08-04T16:41:13.768Z,36.48
2022-08-04T16:43:45.340Z,36.51
2022-08-04T16:46:21.938Z,36.60
2022-08-04T16:48:53.620Z,36.46
2022-08-04T16:51:25.562Z,36.61
2022-08-04T16:54:04.849Z,36.45
2022-08-04T16:56:37.228Z,36.45
2022-08-04T16:59:09.717Z,36.46
2022-08-04T17:01:41.478Z,36.43
2022-08-04T17:04:13.383Z,36.18
2022-08-04T17:06:46.210Z,36.18
2022-08-04T17:09:17.944Z,36.10
2022-08-04T17:11:49.452Z,36.04
2022-08-04T17:14:21.362Z,36.04
2022-08-04T17:16:52.872Z,35.96
2022-08-04T17:19:26.338Z,35.90
2022-08-04T17:22:04.392Z,35.84
2022-08-04T17:24:38.532Z,35.77
2022-08-04T17:28:20.582Z,35.74
2022-08-04T17:30:01.928Z,35.57
2022-08-04T17:32:33.467Z,35.56
2022-08-04T17:35:05.446Z,35.53
2022-08-04T17:37:39.354Z,35.40
2022-08-04T17:40:13.582Z,35.35
2022-08-04T17:42:45.719Z,35.26
2022-08-04T17:48:09.514Z,35.18
2022-08-04T17:50:43.279Z,35.07
2022-08-04T17:53:16.983Z,35.01
2022-08-04T17:55:53.758Z,34.92
2022-08-04T17:58:28.490Z,34.87
2022-08-04T18:01:16.551Z,34.79
2022-08-04T18:06:44.069Z,34.64
2022-08-04T18:09:23.002Z,34.56
2022-08-04T18:12:08.203Z,34.50
2022-08-04T18:14:46.873Z,34.41
2022-08-04T18:18:19.744Z,34.28
2022-08-04T18:20:15.405Z,34.15
2022-08-04T18:22:47.518Z,34.05
2022-08-04T18:25:20.579Z,33.93
2022-08-04T18:27:53.708Z,33.81
2022-08-04T18:30:38.294Z,33.65
2022-08-04T18:33:40.895Z,33.54
2022-08-04T18:36:34.973Z,32.70
2022-08-04T18:39:13.400Z,33.26
2022-08-04T18:42:01.520Z,33.20
2022-08-04T18:44:52.180Z,33.12
2022-08-04T18:47:29.484Z,33.03
2022-08-04T18:51:01.837Z,32.95
2022-08-04T18:52:55.691Z,32.85
2022-08-04T18:55:56.189Z,32.76
2022-08-04T19:01:13.535Z,32.55
2022-08-04T19:03:48.224Z,32.45
2022-08-04T19:06:25.768Z,32.37
2022-08-04T19:08:57.720Z,32.31
2022-08-04T19:11:54.442Z,32.22
2022-08-04T19:14:21.635Z,32.14
2022-08-04T19:16:54.474Z,32.03
2022-08-04T19:19:47.747Z,31.94
2022-08-04T19:22:35.574Z,31.86
2022-08-04T19:25:09.018Z,31.78
2022-08-04T19:27:40.611Z,31.66
2022-08-04T19:30:12.315Z,31.60
2022-08-04T19:32:48.782Z,31.54
2022-08-04T19:35:20.730Z,31.45
2022-08-04T19:37:57.876Z,31.36
2022-08-04T19:40:34.198Z,31.31
2022-08-04T19:43:15.255Z,31.28
2022-08-04T19:45:47.468Z,31.19
2022-08-04T19:48:20.166Z,31.08
2022-08-04T19:50:52.382Z,31.06
2022-08-04T19:53:26.714Z,30.99
2022-08-04T19:56:09.627Z,30.92
2022-08-04T19:58:41.971Z,30.87
2022-08-04T20:01:33.444Z,30.77
2022-08-04T20:04:11.320Z,30.71
2022-08-04T20:06:43.552Z,30.64
2022-08-04T20:09:26.383Z,30.58
2022-08-04T20:11:59.049Z,30.52
2022-08-04T20:14:32.639Z,30.44
2022-08-04T20:17:10.149Z,30.35
2022-08-04T20:19:42.266Z,30.26
2022-08-04T20:22:51.665Z,30.14
2022-08-04T20:25:36.076Z,29.98
2022-08-04T20:28:06.850Z,29.89
2022-08-04T20:30:38.663Z,29.83
2022-08-04T20:33:14.004Z,29.77
2022-08-04T20:36:05.288Z,29.70
2022-08-04T20:38:37.391Z,29.71
2022-08-04T20:41:09.219Z,29.73
2022-08-04T20:43:40.916Z,29.75
2022-08-04T20:46:18.019Z,29.74
2022-08-04T20:48:57.240Z,29.74
2022-08-04T20:51:31.954Z,29.76
2022-08-04T20:54:16.558Z,29.78
2022-08-04T20:56:55.709Z,29.75
2022-08-04T20:59:31.240Z,29.74
2022-08-04T21:02:03.184Z,29.67
2022-08-04T21:04:35.904Z,29.74
2022-08-04T21:07:08.144Z,29.73
2022-08-04T21:09:49.868Z,29.68
2022-08-04T21:12:27.578Z,29.64
2022-08-04T21:15:13.208Z,29.64
2022-08-04T21:20:42.346Z,29.59
2022-08-04T21:23:14.573Z,29.58
2022-08-04T21:25:51.070Z,29.48
2022-08-04T21:28:22.594Z,29.37
2022-08-04T21:30:59.847Z,29.23
2022-08-04T21:33:50.905Z,29.13
2022-08-04T21:36:27.316Z,28.98
2022-08-04T21:38:59.407Z,28.95
2022-08-04T21:41:31.356Z,29.00
2022-08-04T21:44:02.927Z,28.90
2022-08-04T21:46:44.250Z,28.79
2022-08-04T21:49:16.232Z,28.79
2022-08-04T21:51:59.954Z,28.68
2022-08-04T21:54:32.889Z,28.50
2022-08-04T21:57:04.648Z,28.50
2022-08-04T21:59:45.212Z,28.40
2022-08-04T22:02:18.096Z,28.19
2022-08-04T22:04:51.200Z,28.19
2022-08-04T22:07:23.691Z,28.58
2022-08-04T22:10:00.364Z,28.52
2022-08-04T22:12:34.772Z,28.49
2022-08-04T22:15:22.793Z,28.37
2022-08-04T22:18:00.422Z,28.28
2022-08-04T22:20:36.314Z,28.19
2022-08-04T22:23:16.964Z,28.16
2022-08-04T22:25:55.797Z,28.13
2022-08-04T22:28:28.782Z,28.05
2022-08-04T22:31:00.903Z,28.00
2022-08-04T22:33:54.434Z,27.92
2022-08-04T22:36:27.426Z,27.82
2022-08-04T22:39:07.016Z,27.71
2022-08-04T22:42:03.252Z,27.61
2022-08-04T22:44:32.977Z,27.62
2022-08-04T22:47:05.056Z,27.55
2022-08-04T22:49:36.897Z,27.52
2022-08-04T22:52:12.644Z,27.48
2022-08-04T22:54:59.136Z,27.46
2022-08-04T22:57:43.341Z,27.44
2022-08-04T23:00:28.515Z,27.37
2022-08-04T23:03:00.628Z,27.29
2022-08-04T23:05:35.740Z,27.28
2022-08-04T23:08:07.623Z,27.25
2022-08-04T23:10:44.026Z,27.17
2022-08-04T23:13:22.501Z,27.12
2022-08-04T23:15:55.206Z,27.14
2022-08-04T23:18:26.924Z,27.17
2022-08-04T23:20:59.520Z,27.13
2022-08-04T23:23:31.704Z,27.09
2022-08-04T23:26:07.697Z,27.05
2022-08-04T23:28:40.245Z,26.98
2022-08-04T23:31:12.280Z,26.93
2022-08-04T23:33:49.389Z,26.84
2022-08-04T23:36:30.130Z,26.77
2022-08-04T23:39:04.108Z,26.71
2022-08-04T23:41:54.562Z,26.65
2022-08-04T23:44:28.188Z,26.06
2022-08-04T23:46:59.876Z,26.59
2022-08-04T23:49:44.138Z,26.56
2022-08-04T23:52:28.004Z,26.50
2022-08-04T23:55:02.196Z,26.46
2022-08-04T23:58:05.712Z,26.40
